Time;durP1;ratioP1;P1;durP2;ratioP2;P2;SDS_P1;SDS_P2;PMS_P1;PMS_P2;Temp;Humidity;BMP_temperature;BMP_pressure;BME280_temperature;BME280_humidity;BME280_pressure;Samples;Min_cycle;Max_cycle;Signal;HPM_P1;HPM_P2
2024/01/31 00:01:00;;;;;;;13.80;1.83;;;6.20;99.90;;;;;;5159714;27;20039;-76
2024/01/31 00:03:26;;;;;;;10.83;1.70;;;6.20;99.90;;;;;;5161127;27;20042;-76
2024/01/31 00:05:51;;;;;;;11.50;2.43;;;6.20;99.90;;;;;;5161765;27;20451;-76
2024/01/31 00:08:17;;;;;;;13.37;2.00;;;6.20;99.90;;;;;;5160728;27;20129;-76
2024/01/31 00:10:42;;;;;;;15.10;3.10;;;6.20;99.90;;;;;;5161265;27;20043;-76
2024/01/31 00:13:08;;;;;;;10.47;1.87;;;6.20;99.90;;;;;;5161390;27;20565;-76
2024/01/31 00:15:34;;;;;;;10.17;1.87;;;6.20;99.90;;;;;;5161011;27;20050;-76
2024/01/31 00:18:00;;;;;;;14.33;2.83;;;6.20;99.90;;;;;;5161158;27;20054;-76
2024/01/31 00:20:26;;;;;;;12.53;2.23;;;6.20;99.90;;;;;;5160933;27;20118;-76
2024/01/31 00:22:52;;;;;;;12.20;2.23;;;6.20;99.90;;;;;;5161219;27;20819;-76
2024/01/31 00:25:17;;;;;;;8.47;2.00;;;6.20;99.90;;;;;;5160912;27;20046;-76
2024/01/31 00:27:43;;;;;;;7.40;1.77;;;6.20;99.90;;;;;;5160804;27;20114;-75
2024/01/31 00:30:12;;;;;;;10.90;2.10;;;6.20;99.90;;;;;;5161076;27;20035;-76
2024/01/31 00:32:38;;;;;;;11.00;1.97;;;6.20;99.90;;;;;;5161130;27;20052;-76
2024/01/31 00:35:04;;;;;;;11.93;1.97;;;6.20;99.90;;;;;;5161035;27;20272;-76
2024/01/31 00:37:30;;;;;;;7.97;1.37;;;6.20;99.90;;;;;;5160608;27;20043;-75
2024/01/31 00:39:56;;;;;;;8.13;1.97;;;6.20;99.90;;;;;;5161125;27;20299;-76
2024/01/31 00:42:21;;;;;;;12.13;1.40;;;6.20;99.90;;;;;;5160819;27;20187;-76
2024/01/31 00:44:47;;;;;;;7.20;1.30;;;6.20;99.90;;;;;;5142766;27;20451;-76
2024/01/31 00:47:13;;;;;;;8.37;1.40;;;6.20;99.90;;;;;;5160911;27;20135;-76
2024/01/31 00:49:39;;;;;;;6.63;1.17;;;6.20;99.90;;;;;;5161098;27;20039;-76
2024/01/31 00:52:05;;;;;;;8.17;1.60;;;6.20;99.90;;;;;;5140945;27;20272;-76
2024/01/31 00:54:31;;;;;;;8.37;1.50;;;6.20;99.90;;;;;;5157373;27;20284;-76
2024/01/31 00:56:57;;;;;;;6.30;1.37;;;6.20;99.90;;;;;;5157621;27;20268;-76
2024/01/31 00:59:22;;;;;;;15.87;1.53;;;6.20;99.90;;;;;;5157233;27;20474;-76
2024/01/31 01:01:48;;;;;;;10.00;1.60;;;6.20;99.90;;;;;;5157485;27;20042;-77
2024/01/31 01:04:14;;;;;;;9.20;1.40;;;6.20;99.90;;;;;;5157440;27;20078;-76
2024/01/31 01:06:41;;;;;;;8.13;2.00;;;6.20;99.90;;;;;;5157160;27;20046;-76
2024/01/31 01:09:07;;;;;;;6.50;1.37;;;6.20;99.90;;;;;;5157321;27;20035;-76
2024/01/31 01:11:32;;;;;;;9.30;1.57;;;6.20;99.90;;;;;;5157090;27;20335;-76
2024/01/31 01:13:58;;;;;;;13.33;1.97;;;6.20;99.90;;;;;;5157168;27;20770;-76
2024/01/31 01:16:24;;;;;;;12.07;1.40;;;6.20;99.90;;;;;;5157012;27;20053;-76
2024/01/31 01:18:49;;;;;;;7.50;1.07;;;6.10;99.90;;;;;;5157030;27;20432;-77
2024/01/31 01:21:15;;;;;;;7.83;1.40;;;6.10;99.90;;;;;;5156990;27;20050;-77
2024/01/31 01:23:41;;;;;;;13.17;2.33;;;6.10;99.90;;;;;;5156876;27;20047;-77
2024/01/31 01:26:06;;;;;;;7.73;1.33;;;6.00;99.90;;;;;;5138894;27;20089;-77
2024/01/31 01:28:32;;;;;;;9.43;1.60;;;6.00;99.90;;;;;;5156782;27;20035;-76
2024/01/31 01:30:58;;;;;;;10.13;1.70;;;6.00;99.90;;;;;;5156816;27;20133;-77
2024/01/31 01:33:23;;;;;;;13.07;1.73;;;6.00;99.90;;;;;;5156686;27;20042;-77
2024/01/31 01:35:49;;;;;;;11.83;1.63;;;5.90;99.90;;;;;;5156838;27;20046;-77
2024/01/31 01:38:15;;;;;;;8.80;1.93;;;5.90;99.90;;;;;;5156736;27;20055;-76
2024/01/31 01:40:45;;;;;;;10.57;2.63;;;5.90;99.90;;;;;;5156360;27;20086;-77
2024/01/31 01:43:17;;;;;;;7.70;1.47;;;5.90;99.90;;;;;;5154801;27;20125;-76
2024/01/31 01:45:44;;;;;;;11.33;1.80;;;5.80;99.90;;;;;;5154067;27;20744;-75
2024/01/31 01:48:11;;;;;;;9.33;1.43;;;5.80;99.90;;;;;;5154501;27;20795;-76
2024/01/31 01:50:38;;;;;;;12.17;1.50;;;5.80;99.90;;;;;;5154339;27;20268;-75
2024/01/31 01:53:04;;;;;;;9.63;1.50;;;5.80;99.90;;;;;;5154556;27;20635;-76
2024/01/31 01:55:30;;;;;;;6.90;1.55;;;5.80;99.90;;;;;;5154404;27;20276;-76
2024/01/31 01:57:56;;;;;;;5.93;1.20;;;5.80;99.90;;;;;;5154650;27;20069;-75
2024/01/31 02:00:24;;;;;;;10.97;1.97;;;5.80;99.90;;;;;;5156055;27;20394;-76
2024/01/31 02:02:51;;;;;;;10.37;1.30;;;5.70;99.90;;;;;;5156282;27;20280;-77
2024/01/31 02:05:16;;;;;;;8.27;1.30;;;5.70;99.90;;;;;;5154920;27;20383;-77
2024/01/31 02:07:43;;;;;;;11.20;1.50;;;5.70;99.90;;;;;;5156062;27;20276;-77
2024/01/31 02:10:09;;;;;;;9.53;1.40;;;5.70;99.90;;;;;;5156130;27;20562;-76
2024/01/31 02:12:35;;;;;;;10.30;2.30;;;5.60;99.90;;;;;;5155883;27;20272;-76
2024/01/31 02:15:01;;;;;;;8.00;1.40;;;5.50;99.90;;;;;;5156114;27;20632;-77
2024/01/31 02:17:27;;;;;;;9.43;1.73;;;5.50;99.90;;;;;;5155783;27;20050;-76
2024/01/31 02:19:52;;;;;;;6.53;1.30;;;5.50;99.90;;;;;;5155829;27;20071;-77
2024/01/31 02:22:19;;;;;;;12.33;1.70;;;5.50;99.90;;;;;;5155951;27;20046;-77
2024/01/31 02:24:45;;;;;;;13.93;1.80;;;5.50;99.90;;;;;;5155662;27;20043;-77
2024/01/31 02:27:12;;;;;;;10.00;1.77;;;5.50;99.90;;;;;;5155864;27;20398;-77
2024/01/31 02:29:38;;;;;;;9.80;1.70;;;5.50;99.90;;;;;;5155573;27;20275;-77
2024/01/31 02:32:05;;;;;;;9.10;1.37;;;5.50;99.90;;;;;;5155672;27;20424;-77
2024/01/31 02:34:31;;;;;;;15.70;2.07;;;5.50;99.90;;;;;;5155545;27;20358;-76
2024/01/31 02:36:57;;;;;;;10.10;1.53;;;5.50;99.90;;;;;;5155758;27;20311;-77
2024/01/31 02:39:24;;;;;;;9.10;1.70;;;5.50;99.90;;;;;;5155749;27;20047;-77
2024/01/31 02:41:52;;;;;;;9.13;1.60;;;5.50;99.90;;;;;;5155819;27;20126;-77
2024/01/31 02:44:18;;;;;;;12.43;2.80;;;5.50;99.90;;;;;;5155607;27;20311;-77
2024/01/31 02:46:44;;;;;;;5.80;1.57;;;5.50;99.90;;;;;;5155218;27;20272;-76
2024/01/31 02:49:10;;;;;;;7.87;2.23;;;5.50;99.90;;;;;;5155365;27;20735;-76
2024/01/31 02:51:36;;;;;;;11.80;1.80;;;5.50;99.90;;;;;;5155129;27;20333;-76
2024/01/31 02:54:02;;;;;;;10.73;1.67;;;5.40;99.90;;;;;;5155489;27;20038;-77
2024/01/31 02:56:27;;;;;;;7.57;1.97;;;5.50;99.90;;;;;;5155168;27;20038;-76
2024/01/31 02:58:53;;;;;;;10.10;1.97;;;5.50;99.90;;;;;;5119605;27;20030;-76
2024/01/31 03:01:19;;;;;;;9.37;1.50;;;5.50;99.90;;;;;;5155235;27;20538;-76
2024/01/31 03:03:45;;;;;;;7.63;1.40;;;5.50;99.90;;;;;;5154947;27;20186;-76
2024/01/31 03:06:11;;;;;;;4.73;1.10;;;5.40;99.90;;;;;;5155403;27;20276;-77
2024/01/31 03:08:37;;;;;;;7.90;1.20;;;5.40;99.90;;;;;;5154826;27;20038;-76
2024/01/31 03:11:02;;;;;;;9.23;1.60;;;5.30;99.90;;;;;;5136748;27;20291;-76
2024/01/31 03:13:28;;;;;;;5.30;1.10;;;5.30;99.90;;;;;;5154896;27;20391;-72
2024/01/31 03:15:54;;;;;;;7.97;1.30;;;5.30;99.90;;;;;;5154734;27;20050;-76
2024/01/31 03:18:19;;;;;;;7.40;1.07;;;5.30;99.90;;;;;;5154499;27;20064;-76
2024/01/31 03:20:45;;;;;;;8.00;1.57;;;5.30;99.90;;;;;;5154627;27;20050;-76
2024/01/31 03:23:12;;;;;;;10.80;1.57;;;5.30;99.90;;;;;;5155058;27;20043;-76
2024/01/31 03:25:37;;;;;;;7.43;1.00;;;5.30;99.90;;;;;;5154582;27;20111;-75
2024/01/31 03:28:03;;;;;;;5.50;0.97;;;5.30;99.90;;;;;;5154753;27;20272;-76
2024/01/31 03:30:29;;;;;;;5.70;0.93;;;5.20;99.90;;;;;;5154683;27;20052;-76
2024/01/31 03:32:55;;;;;;;5.07;1.10;;;5.20;99.90;;;;;;5154946;27;20280;-76
2024/01/31 03:35:22;;;;;;;4.83;1.00;;;5.30;99.90;;;;;;5154672;27;20120;-77
2024/01/31 03:37:47;;;;;;;6.00;1.17;;;5.30;99.90;;;;;;5135873;27;20284;-76
2024/01/31 03:40:13;;;;;;;5.40;1.20;;;5.30;99.90;;;;;;5154562;27;20497;-77
2024/01/31 03:42:39;;;;;;;6.87;1.50;;;5.30;99.90;;;;;;5154392;27;20051;-76
2024/01/31 03:45:05;;;;;;;6.90;1.53;;;5.20;99.90;;;;;;5154524;27;20173;-76
2024/01/31 03:47:34;;;;;;;5.47;1.50;;;5.30;99.90;;;;;;5154587;27;20084;-77
2024/01/31 03:49:59;;;;;;;5.47;1.30;;;5.30;99.90;;;;;;5154543;27;20051;-77
2024/01/31 03:52:25;;;;;;;5.17;1.53;;;5.30;99.90;;;;;;5154493;27;20283;-77
2024/01/31 03:54:51;;;;;;;5.10;1.40;;;5.30;99.90;;;;;;5154334;27;20042;-77
2024/01/31 03:57:17;;;;;;;8.55;1.70;;;5.30;99.90;;;;;;5154605;27;20043;-77
2024/01/31 03:59:43;;;;;;;7.10;1.70;;;5.30;99.90;;;;;;5154179;27;20042;-76
2024/01/31 04:02:08;;;;;;;6.60;1.73;;;5.40;99.90;;;;;;5154432;27;20053;-77
2024/01/31 04:04:34;;;;;;;8.30;1.57;;;5.30;99.90;;;;;;5154215;27;20051;-76
2024/01/31 04:07:00;;;;;;;5.07;1.87;;;5.30;99.90;;;;;;5154622;27;20049;-77
2024/01/31 04:09:25;;;;;;;8.93;2.13;;;5.30;99.90;;;;;;5154450;27;20375;-76
2024/01/31 04:11:51;;;;;;;6.67;1.50;;;5.30;99.90;;;;;;5154405;27;20045;-76
2024/01/31 04:14:17;;;;;;;6.40;1.70;;;5.30;99.90;;;;;;5154711;27;20035;-77
2024/01/31 04:16:43;;;;;;;7.90;1.40;;;5.30;99.90;;;;;;5154103;27;20458;-77
2024/01/31 04:19:08;;;;;;;4.00;1.20;;;5.30;99.90;;;;;;5135885;27;20172;-77
2024/01/31 04:21:34;;;;;;;8.03;1.50;;;5.30;99.90;;;;;;5154341;27;20118;-77
2024/01/31 04:24:00;;;;;;;6.27;1.40;;;5.30;99.90;;;;;;5154083;27;20043;-76
2024/01/31 04:26:25;;;;;;;7.53;1.70;;;5.30;99.90;;;;;;5154291;27;20054;-77
2024/01/31 04:28:52;;;;;;;7.30;2.10;;;5.30;99.90;;;;;;5156893;27;20038;-77
2024/01/31 04:31:18;;;;;;;8.45;1.77;;;5.30;99.90;;;;;;5158161;27;20126;-77
2024/01/31 04:33:44;;;;;;;10.93;2.30;;;5.30;99.90;;;;;;5157918;27;20150;-76
2024/01/31 04:36:10;;;;;;;8.98;2.10;;;5.30;99.90;;;;;;5158066;27;20146;-77
2024/01/31 04:38:35;;;;;;;6.63;2.23;;;5.30;99.90;;;;;;5157844;27;20470;-76
2024/01/31 04:41:02;;;;;;;6.03;1.83;;;5.40;99.90;;;;;;5157683;27;20043;-77
2024/01/31 04:43:28;;;;;;;10.10;2.22;;;5.40;99.90;;;;;;5158016;27;20046;-77
2024/01/31 04:45:54;;;;;;;10.67;2.57;;;5.40;99.90;;;;;;5157612;27;20054;-76
2024/01/31 04:48:20;;;;;;;8.75;2.22;;;5.40;99.90;;;;;;5157738;27;20057;-77
2024/01/31 04:50:46;;;;;;;6.80;1.80;;;5.40;99.90;;;;;;5157540;27;20043;-76
2024/01/31 04:53:12;;;;;;;7.53;2.17;;;5.40;99.90;;;;;;5157658;27;20414;-76
2024/01/31 04:55:37;;;;;;;10.20;1.63;;;5.40;99.90;;;;;;5157456;27;20038;-76
2024/01/31 04:58:03;;;;;;;10.23;2.70;;;5.40;99.90;;;;;;5157496;27;20107;-77
2024/01/31 05:00:29;;;;;;;9.03;2.00;;;5.40;99.90;;;;;;5157370;27;20038;-77
2024/01/31 05:02:55;;;;;;;8.87;1.60;;;5.40;99.90;;;;;;5138831;27;20050;-78
2024/01/31 05:05:20;;;;;;;7.57;1.40;;;5.40;99.90;;;;;;5157619;27;20050;-78
2024/01/31 05:07:46;;;;;;;9.83;1.80;;;5.40;99.90;;;;;;5157483;27;20490;-77
2024/01/31 05:10:12;;;;;;;8.63;1.90;;;5.40;99.90;;;;;;5157353;27;20039;-78
2024/01/31 05:12:38;;;;;;;10.90;1.40;;;5.40;99.90;;;;;;5157345;27;20050;-77
2024/01/31 05:15:05;;;;;;;11.73;2.10;;;5.40;99.90;;;;;;5157073;27;20051;-77
2024/01/31 05:17:30;;;;;;;11.00;1.60;;;5.40;99.90;;;;;;5157293;27;20092;-78
2024/01/31 05:19:56;;;;;;;10.10;1.70;;;5.40;99.90;;;;;;5156856;27;20462;-77
2024/01/31 05:22:22;;;;;;;8.93;1.80;;;5.40;99.90;;;;;;5139031;27;20053;-77
2024/01/31 05:24:48;;;;;;;5.27;1.27;;;5.40;99.90;;;;;;5156881;27;20038;-77
2024/01/31 05:27:13;;;;;;;10.00;1.90;;;5.40;99.90;;;;;;5157119;27;20502;-77
2024/01/31 05:29:39;;;;;;;9.50;2.43;;;5.30;99.90;;;;;;5156954;27;20167;-77
2024/01/31 05:32:05;;;;;;;8.43;1.53;;;5.30;99.90;;;;;;5156717;27;20061;-77
2024/01/31 05:34:31;;;;;;;10.75;2.03;;;5.40;99.90;;;;;;5157193;27;20042;-77
2024/01/31 05:36:57;;;;;;;7.13;1.53;;;5.30;99.90;;;;;;5156570;27;20042;-77
2024/01/31 05:39:22;;;;;;;15.10;2.97;;;5.30;99.90;;;;;;5156715;27;20396;-77
2024/01/31 05:41:48;;;;;;;11.33;1.90;;;5.30;99.90;;;;;;5156273;27;20095;-76
2024/01/31 05:44:14;;;;;;;10.00;1.93;;;5.30;99.90;;;;;;5156992;27;20470;-77
2024/01/31 05:46:40;;;;;;;9.25;2.33;;;5.30;99.90;;;;;;5156634;27;20043;-77
2024/01/31 05:49:06;;;;;;;13.30;2.07;;;5.30;99.90;;;;;;5156502;27;20481;-77
2024/01/31 05:51:32;;;;;;;10.50;2.00;;;5.20;99.90;;;;;;5156489;27;20165;-77
2024/01/31 05:53:57;;;;;;;10.60;1.77;;;5.30;99.90;;;;;;5156230;27;20462;-77
2024/01/31 05:56:23;;;;;;;9.30;1.50;;;5.30;99.90;;;;;;5156138;27;20054;-77
2024/01/31 05:58:49;;;;;;;12.63;2.83;;;5.20;99.90;;;;;;5156071;27;20039;-77
2024/01/31 06:01:16;;;;;;;7.95;1.95;;;5.20;99.90;;;;;;5156289;27;20038;-77
2024/01/31 06:03:42;;;;;;;10.02;1.75;;;5.10;99.90;;;;;;5156297;27;20095;-77
2024/01/31 06:06:07;;;;;;;9.10;2.23;;;5.10;99.90;;;;;;5137559;27;20047;-77
2024/01/31 06:08:33;;;;;;;10.20;1.90;;;5.00;99.90;;;;;;5156442;27;20034;-77
2024/01/31 06:11:08;;;;;;;16.47;1.70;;;4.90;99.90;;;;;;5155948;27;20078;-77
2024/01/31 06:13:34;;;;;;;12.73;2.03;;;4.90;99.90;;;;;;5156047;27;20272;-77
2024/01/31 06:16:00;;;;;;;7.97;2.00;;;4.90;99.90;;;;;;5155909;27;20051;-77
2024/01/31 06:18:26;;;;;;;9.37;2.10;;;4.80;99.90;;;;;;5120770;27;20041;-77
2024/01/31 06:20:52;;;;;;;11.97;2.23;;;4.80;99.90;;;;;;5155732;27;20047;-77
2024/01/31 06:23:18;;;;;;;9.17;1.37;;;4.80;99.90;;;;;;5156076;27;20046;-77
2024/01/31 06:25:44;;;;;;;14.93;2.42;;;4.70;99.90;;;;;;5155935;27;20046;-77
2024/01/31 06:28:10;;;;;;;8.70;1.65;;;4.70;99.90;;;;;;5137176;27;20038;-77
2024/01/31 06:30:44;;;;;;;8.87;1.70;;;4.70;99.90;;;;;;5155696;27;20042;-77
2024/01/31 06:33:10;;;;;;;9.38;1.90;;;4.70;99.90;;;;;;5155349;27;20490;-77
2024/01/31 06:35:38;;;;;;;10.63;2.65;;;4.70;99.90;;;;;;5155881;27;20043;-77
2024/01/31 06:38:04;;;;;;;11.57;1.80;;;4.70;99.90;;;;;;5154985;27;20558;-77
2024/01/31 06:40:30;;;;;;;11.13;2.33;;;4.80;99.90;;;;;;5155683;27;20043;-78
2024/01/31 06:42:59;;;;;;;13.03;2.30;;;4.80;99.90;;;;;;5155261;27;20367;-77
2024/01/31 06:45:25;;;;;;;7.50;1.80;;;4.90;99.90;;;;;;5155414;27;20047;-77
2024/01/31 06:47:51;;;;;;;8.33;1.77;;;4.90;99.90;;;;;;5155213;27;20050;-75
2024/01/31 06:50:18;;;;;;;11.50;2.28;;;4.90;99.90;;;;;;5154709;27;20363;-77
2024/01/31 06:52:44;;;;;;;9.20;1.95;;;4.90;99.90;;;;;;5154775;27;20470;-77
2024/01/31 06:55:10;;;;;;;10.68;1.85;;;4.90;99.90;;;;;;5155099;27;20046;-77
2024/01/31 06:57:37;;;;;;;12.33;2.47;;;5.00;99.90;;;;;;5155442;27;20058;-77
2024/01/31 07:00:07;;;;;;;10.63;2.03;;;5.00;99.90;;;;;;5136422;27;20049;-77
2024/01/31 07:02:32;;;;;;;6.97;1.63;;;5.00;99.90;;;;;;5155171;27;20375;-77
2024/01/31 07:04:58;;;;;;;11.07;2.37;;;5.00;99.90;;;;;;5154907;27;20125;-77
2024/01/31 07:07:24;;;;;;;9.13;1.80;;;5.00;99.90;;;;;;5155078;27;20038;-77
2024/01/31 07:09:49;;;;;;;11.00;1.90;;;5.00;99.90;;;;;;5155406;27;20482;-77
2024/01/31 07:12:15;;;;;;;10.97;2.83;;;5.00;99.90;;;;;;5154737;27;20038;-77
2024/01/31 07:14:42;;;;;;;7.83;1.90;;;5.00;99.90;;;;;;5154971;27;20043;-78
2024/01/31 07:17:08;;;;;;;9.15;1.90;;;5.00;99.90;;;;;;5154713;27;20125;-78
2024/01/31 07:19:33;;;;;;;7.40;1.80;;;5.10;99.90;;;;;;5154833;27;20130;-78
2024/01/31 07:21:59;;;;;;;7.27;1.70;;;5.00;99.90;;;;;;5119274;27;20050;-77
2024/01/31 07:24:25;;;;;;;7.80;1.97;;;5.00;99.90;;;;;;5154784;27;20103;-78
2024/01/31 07:26:51;;;;;;;6.90;2.10;;;5.00;99.90;;;;;;5154895;27;20043;-77
2024/01/31 07:29:16;;;;;;;8.30;1.90;;;5.00;99.90;;;;;;5154192;27;20047;-78
2024/01/31 07:31:42;;;;;;;8.23;2.27;;;5.00;99.90;;;;;;5154731;27;20045;-78
2024/01/31 07:34:08;;;;;;;11.97;2.47;;;5.00;99.90;;;;;;5154469;27;20089;-78
2024/01/31 07:36:33;;;;;;;12.30;3.37;;;5.00;99.90;;;;;;5154601;27;20063;-78
2024/01/31 07:38:59;;;;;;;6.20;2.13;;;5.10;99.90;;;;;;5154036;27;20053;-77
2024/01/31 07:41:25;;;;;;;12.60;2.50;;;5.00;99.90;;;;;;5154710;27;20483;-77
2024/01/31 07:43:51;;;;;;;9.37;2.27;;;5.10;99.90;;;;;;5154623;27;20147;-78
2024/01/31 07:46:16;;;;;;;11.93;2.90;;;5.00;99.90;;;;;;5154019;27;20051;-77
2024/01/31 07:48:42;;;;;;;10.33;2.60;;;5.10;99.90;;;;;;5154683;27;20074;-78
2024/01/31 07:51:08;;;;;;;11.17;3.00;;;5.10;99.90;;;;;;5154010;27;20043;-77
2024/01/31 07:53:34;;;;;;;8.33;2.83;;;5.10;99.90;;;;;;5154644;27;20047;-78
2024/01/31 07:55:59;;;;;;;9.70;3.07;;;5.10;99.90;;;;;;5154258;27;20197;-78
2024/01/31 07:58:25;;;;;;;10.90;2.77;;;5.10;99.90;;;;;;5154399;27;20051;-78
2024/01/31 08:00:51;;;;;;;8.13;3.63;;;5.10;99.90;;;;;;5154492;27;20415;-78
2024/01/31 08:03:17;;;;;;;11.30;3.47;;;5.10;99.90;;;;;;5158232;27;20134;-78
2024/01/31 08:05:42;;;;;;;8.70;3.33;;;5.10;99.90;;;;;;5158667;27;20038;-78
2024/01/31 08:08:08;;;;;;;9.77;3.57;;;5.20;99.90;;;;;;5158500;27;20047;-78
2024/01/31 08:10:34;;;;;;;9.37;3.60;;;5.20;99.90;;;;;;5158562;27;20478;-78
2024/01/31 08:12:59;;;;;;;8.70;3.97;;;5.20;99.90;;;;;;5158301;27;20081;-78
2024/01/31 08:15:25;;;;;;;9.13;4.03;;;5.20;99.90;;;;;;5158644;27;20035;-78
2024/01/31 08:17:51;;;;;;;10.23;4.10;;;5.20;99.90;;;;;;5158372;27;20477;-78
2024/01/31 08:20:17;;;;;;;11.93;4.13;;;5.20;99.90;;;;;;5158011;27;20092;-76
2024/01/31 08:22:42;;;;;;;10.55;4.57;;;5.30;99.90;;;;;;5158256;27;20045;-77
2024/01/31 08:25:09;;;;;;;10.30;4.33;;;5.30;99.90;;;;;;5158047;27;20047;-76
2024/01/31 08:27:34;;;;;;;9.57;4.85;;;5.30;99.90;;;;;;5139919;27;20051;-78
2024/01/31 08:30:00;;;;;;;8.67;4.33;;;5.30;99.90;;;;;;5157755;27;20039;-76
2024/01/31 08:32:26;;;;;;;10.53;4.93;;;5.30;99.90;;;;;;5158088;27;20049;-76
2024/01/31 08:34:51;;;;;;;9.73;4.60;;;5.40;99.90;;;;;;5158026;27;20042;-79
2024/01/31 08:37:18;;;;;;;13.37;5.33;;;5.40;99.90;;;;;;5157790;27;20039;-80
2024/01/31 08:39:43;;;;;;;8.90;5.03;;;5.40;99.90;;;;;;5139391;27;20058;-79
2024/01/31 08:42:09;;;;;;;9.50;5.60;;;5.40;99.90;;;;;;5157715;27;20061;-79
2024/01/31 08:44:35;;;;;;;11.23;6.10;;;5.40;99.90;;;;;;5158251;27;20466;-79
2024/01/31 08:47:00;;;;;;;11.60;5.73;;;5.40;99.90;;;;;;5139620;27;20047;-79
2024/01/31 08:49:26;;;;;;;10.00;6.27;;;5.50;99.90;;;;;;5157874;27;20035;-77
2024/01/31 08:51:53;;;;;;;11.47;5.70;;;5.50;99.90;;;;;;5157822;27;20047;-77
2024/01/31 08:54:20;;;;;;;9.70;6.70;;;5.50;99.90;;;;;;5157527;27;20046;-75
2024/01/31 08:56:46;;;;;;;15.00;7.00;;;5.60;99.90;;;;;;5157675;27;20082;-75
2024/01/31 08:59:12;;;;;;;11.27;7.60;;;5.60;99.90;;;;;;5157351;27;20085;-75
2024/01/31 09:01:43;;;;;;;9.77;7.18;;;5.60;99.90;;;;;;5157581;27;20063;-75
2024/01/31 09:04:08;;;;;;;10.50;7.88;;;5.70;99.90;;;;;;5157315;27;20125;-74
2024/01/31 09:06:35;;;;;;;10.90;7.80;;;5.70;99.90;;;;;;5139204;27;20087;-75
2024/01/31 09:09:01;;;;;;;11.10;7.80;;;5.70;99.90;;;;;;5157559;27;20043;-78
2024/01/31 09:11:26;;;;;;;13.10;8.53;;;5.80;99.90;;;;;;5157166;27;20062;-75
2024/01/31 09:13:52;;;;;;;9.60;8.53;;;5.80;99.90;;;;;;5156579;27;20050;-75
2024/01/31 09:16:18;;;;;;;12.23;9.57;;;5.80;99.90;;;;;;5157070;27;20035;-75
2024/01/31 09:18:44;;;;;;;12.47;9.60;;;5.90;99.90;;;;;;5157323;27;20081;-75
2024/01/31 09:21:21;;;;;;;12.37;9.17;;;5.90;99.90;;;;;;5138800;27;20125;-74
2024/01/31 09:23:47;;;;;;;13.43;9.63;;;6.00;99.90;;;;;;5157188;27;20038;-75
2024/01/31 09:26:13;;;;;;;9.87;8.07;;;6.00;99.90;;;;;;5156906;27;20272;-74
2024/01/31 09:28:39;;;;;;;14.77;9.77;;;6.00;99.90;;;;;;5157068;27;20283;-75
2024/01/31 09:31:05;;;;;;;11.07;8.90;;;6.00;99.90;;;;;;5156996;27;20268;-75
2024/01/31 09:33:30;;;;;;;10.63;8.57;;;6.10;99.90;;;;;;5138438;27;20038;-75
2024/01/31 09:35:56;;;;;;;12.57;9.47;;;6.10;99.90;;;;;;5156985;27;20096;-76
2024/01/31 09:38:25;;;;;;;11.50;8.90;;;6.10;99.90;;;;;;5156597;27;20073;-76
2024/01/31 09:40:51;;;;;;;12.10;9.93;;;6.10;99.90;;;;;;5156853;27;20042;-76
2024/01/31 09:43:18;;;;;;;11.53;8.57;;;6.20;99.90;;;;;;5156581;27;20347;-75
2024/01/31 09:45:44;;;;;;;10.80;8.55;;;6.20;99.90;;;;;;5156625;27;20287;-75
2024/01/31 09:48:12;;;;;;;11.93;10.20;;;6.20;99.90;;;;;;5156497;27;20042;-75
2024/01/31 09:50:37;;;;;;;11.15;8.75;;;6.30;99.90;;;;;;5156604;27;20043;-76
2024/01/31 09:53:04;;;;;;;11.50;9.40;;;6.30;99.90;;;;;;5156607;27;20092;-77
2024/01/31 09:55:30;;;;;;;10.97;9.07;;;6.30;99.90;;;;;;5138016;27;20057;-80
2024/01/31 09:57:56;;;;;;;15.02;9.20;;;6.30;99.90;;;;;;5156630;27;20341;-80
2024/01/31 10:00:22;;;;;;;11.20;8.80;;;6.30;99.90;;;;;;5137731;27;20482;-81
2024/01/31 10:02:49;;;;;;;12.23;8.67;;;6.40;99.90;;;;;;5156442;27;20517;-81
2024/01/31 10:05:14;;;;;;;10.70;8.43;;;6.40;99.90;;;;;;5156100;27;20097;-79
2024/01/31 10:07:40;;;;;;;11.47;8.10;;;6.40;99.90;;;;;;5156494;27;20303;-78
2024/01/31 10:10:08;;;;;;;12.30;8.60;;;6.40;99.90;;;;;;5156230;27;20061;-78
2024/01/31 10:12:34;;;;;;;10.93;8.90;;;6.40;99.90;;;;;;5155988;27;20438;-77
2024/01/31 10:15:00;;;;;;;12.43;9.27;;;6.50;99.90;;;;;;5156145;27;20038;-78
2024/01/31 10:17:26;;;;;;;9.87;8.13;;;6.50;99.90;;;;;;5155889;27;20095;-78
2024/01/31 10:19:51;;;;;;;10.23;8.20;;;6.50;99.90;;;;;;5137576;27;20086;-81
2024/01/31 10:22:18;;;;;;;9.93;7.90;;;6.50;99.90;;;;;;5155740;27;20355;-79
2024/01/31 10:24:50;;;;;;;10.13;7.83;;;6.50;99.90;;;;;;5155113;27;20343;-78
2024/01/31 10:27:19;;;;;;;10.63;8.07;;;6.50;99.90;;;;;;5155445;27;20636;-78
2024/01/31 10:29:45;;;;;;;10.93;8.07;;;6.50;99.90;;;;;;5155493;27;20720;-79
2024/01/31 10:32:16;;;;;;;10.50;7.73;;;6.50;99.90;;;;;;5120113;27;20280;-80
2024/01/31 10:34:43;;;;;;;9.67;7.73;;;6.50;99.90;;;;;;5137712;27;20290;-80
2024/01/31 10:37:10;;;;;;;9.67;8.13;;;6.50;99.90;;;;;;5137452;27;20292;-79
2024/01/31 10:39:37;;;;;;;10.93;7.80;;;6.50;99.90;;;;;;5133203;27;20305;-80
2024/01/31 10:42:04;;;;;;;12.20;8.05;;;6.60;99.90;;;;;;5134931;27;20412;-81
2024/01/31 10:44:36;;;;;;;10.33;8.57;;;6.60;99.90;;;;;;5134623;27;20043;-78
2024/01/31 10:47:02;;;;;;;10.33;8.17;;;6.60;99.90;;;;;;5116433;27;20324;-79
2024/01/31 10:49:28;;;;;;;9.27;7.60;;;6.60;99.90;;;;;;5109088;28;20310;-73
2024/01/31 10:51:57;;;;;;;10.80;8.53;;;6.60;99.90;;;;;;5106302;28;20329;-81
2024/01/31 10:54:28;;;;;;;9.73;7.57;;;6.60;99.90;;;;;;5112953;28;20047;-76
2024/01/31 10:56:55;;;;;;;9.00;6.73;;;6.70;99.90;;;;;;5118250;27;20355;-77
2024/01/31 10:59:21;;;;;;;8.60;7.07;;;6.70;99.90;;;;;;5130798;27;20296;-76
2024/01/31 11:01:55;;;;;;;9.10;6.90;;;6.70;99.90;;;;;;5132048;27;20759;-75
2024/01/31 11:04:21;;;;;;;9.07;7.10;;;6.70;99.90;;;;;;5133791;27;20043;-76
2024/01/31 11:06:51;;;;;;;9.10;6.70;;;6.70;99.90;;;;;;5128834;27;20046;-79
2024/01/31 11:09:20;;;;;;;8.77;6.27;;;6.70;99.90;;;;;;5132419;27;20273;-73
2024/01/31 11:11:45;;;;;;;8.03;5.73;;;6.80;99.90;;;;;;5121772;27;20289;-77
2024/01/31 11:14:14;;;;;;;10.67;6.40;;;6.80;99.90;;;;;;5129719;27;20346;-77
2024/01/31 11:16:41;;;;;;;7.80;6.17;;;6.80;99.90;;;;;;5130782;27;20050;-76
2024/01/31 11:19:08;;;;;;;8.70;6.03;;;6.80;99.90;;;;;;5133827;27;20332;-75
2024/01/31 11:21:38;;;;;;;7.83;6.40;;;6.80;99.90;;;;;;5118526;27;20334;-74
2024/01/31 11:24:04;;;;;;;7.87;5.43;;;6.80;99.90;;;;;;5133976;27;20269;-74
2024/01/31 11:26:33;;;;;;;7.50;4.80;;;6.80;99.90;;;;;;5133906;27;20280;-74
2024/01/31 11:29:01;;;;;;;9.27;5.83;;;6.80;99.90;;;;;;5134081;27;20825;-74
2024/01/31 11:31:28;;;;;;;8.17;5.00;;;6.80;99.90;;;;;;5133659;27;20776;-74
2024/01/31 11:33:56;;;;;;;8.07;5.20;;;6.90;99.90;;;;;;5134072;27;20295;-74
2024/01/31 11:36:22;;;;;;;6.43;5.07;;;6.90;99.90;;;;;;5133513;27;20273;-74
2024/01/31 11:38:48;;;;;;;10.40;5.63;;;6.90;99.90;;;;;;5141877;27;20820;-76
2024/01/31 11:41:13;;;;;;;7.33;5.57;;;6.90;99.90;;;;;;5136578;27;20146;-76
2024/01/31 11:43:39;;;;;;;6.97;5.47;;;6.90;99.90;;;;;;5154156;27;20043;-76
2024/01/31 11:46:05;;;;;;;7.17;5.33;;;6.90;99.90;;;;;;5119137;27;20054;-75
2024/01/31 11:48:32;;;;;;;7.43;5.23;;;6.90;99.90;;;;;;5151248;27;20272;-77
2024/01/31 11:50:58;;;;;;;8.00;5.50;;;6.90;99.90;;;;;;5154523;27;20107;-76
2024/01/31 11:53:24;;;;;;;8.67;6.17;;;6.90;99.90;;;;;;5153976;27;20362;-76
2024/01/31 11:55:51;;;;;;;7.83;5.93;;;6.90;99.90;;;;;;5153740;27;20443;-76
2024/01/31 11:58:17;;;;;;;10.53;6.47;;;6.90;99.90;;;;;;5154158;27;20272;-77
2024/01/31 12:00:43;;;;;;;8.27;6.00;;;6.90;99.90;;;;;;5153842;27;20294;-76
2024/01/31 12:03:10;;;;;;;7.23;5.47;;;6.90;99.90;;;;;;5135731;27;20213;-77
2024/01/31 12:05:36;;;;;;;8.80;6.47;;;7.00;99.90;;;;;;5154199;27;20276;-77
2024/01/31 12:08:01;;;;;;;8.50;5.77;;;7.00;99.90;;;;;;5154426;27;20272;-73
2024/01/31 12:10:28;;;;;;;8.53;6.23;;;7.00;99.90;;;;;;5154151;27;20038;-78
2024/01/31 12:13:00;;;;;;;8.20;5.67;;;7.00;99.90;;;;;;5135974;27;20043;-79
2024/01/31 12:15:26;;;;;;;7.87;5.33;;;7.00;99.90;;;;;;5154112;27;20287;-79
2024/01/31 12:17:53;;;;;;;6.77;5.30;;;7.00;99.90;;;;;;5154322;27;20316;-80
2024/01/31 12:20:19;;;;;;;7.33;5.60;;;7.00;99.90;;;;;;5154278;27;20307;-82
2024/01/31 12:22:45;;;;;;;7.77;5.40;;;7.00;99.90;;;;;;5154098;27;20320;-76
2024/01/31 12:25:11;;;;;;;7.93;5.33;;;7.10;99.90;;;;;;5153564;27;20331;-76
2024/01/31 12:27:37;;;;;;;8.27;5.27;;;7.10;99.90;;;;;;5152075;27;20276;-76
2024/01/31 12:30:04;;;;;;;6.87;4.83;;;7.10;99.90;;;;;;5154241;27;20039;-76
2024/01/31 12:32:30;;;;;;;7.00;5.17;;;7.10;99.90;;;;;;5154057;27;20054;-76
2024/01/31 12:34:55;;;;;;;8.30;5.60;;;7.10;99.90;;;;;;5154226;27;20420;-76
2024/01/31 12:37:21;;;;;;;8.47;5.00;;;7.10;99.90;;;;;;5153798;27;20504;-76
2024/01/31 12:39:47;;;;;;;8.90;6.00;;;7.20;99.90;;;;;;5153848;27;20118;-76
2024/01/31 12:42:13;;;;;;;8.10;5.80;;;7.20;99.90;;;;;;5153813;27;20121;-77
2024/01/31 12:44:38;;;;;;;9.17;5.50;;;7.20;99.90;;;;;;5153852;27;20038;-76
2024/01/31 12:47:08;;;;;;;8.57;5.37;;;7.20;99.90;;;;;;5153801;27;20054;-77